BED weather

Laurence G Hanscom Field
Bedford, Massachusetts, United States

Public forecast

Using degrees Fahrenheit for public forecast. Weather courtesy of forecast.io.

Current aviation weather report (METAR) for Laurence G Hanscom Field

Retrieved 2019/10/16 22:03 UTC (51 minutes ago):

KBED 162203Z 11010KT 10SM BKN018 14/09 A2978 RMK AO2 T01440089

Aviation forecast (TAF) for Laurence G Hanscom Field

Retrieved 2019/10/16 18:54 UTC (4 hours ago):

TAF KBED 161744Z 1618/1718 12010KT P6SM SCT040 BKN200 FM170000 10011G24KT 3SM -RA OVC020 FM170200 10015G30KT 2SM -RA BR OVC008 FM170600 07020G41KT 1 1/2SM +RA BR OVC008 WS020/10055KT FM170900 04017G29KT P6SM VCSH BKN010 FM171200 25015G38KT P6SM BKN025 WS020/23040KT FM171500 25019G40KT P6SM VCSH OVC015